createdAt,value
2019-02-04T00:04:42.250Z,12.02
2019-02-04T00:24:56.197Z,24.04
2019-02-04T00:44:57.939Z,31.21
2019-02-04T01:04:57.545Z,23.54
2019-02-04T01:25:07.113Z,21.30
2019-02-04T01:45:16.610Z,19.15
2019-02-04T02:05:26.172Z,20.69
2019-02-04T02:25:40.214Z,19.10
2019-02-04T02:45:39.896Z,21.21
2019-02-04T03:05:49.449Z,20.88
2019-02-04T03:25:59.077Z,28.81
2019-02-04T03:46:10.892Z,14.63
2019-02-04T04:06:10.481Z,15.98
2019-02-04T04:26:19.968Z,11.95
2019-02-04T04:46:29.511Z,21.28
2019-02-04T05:06:41.232Z,20.97
2019-02-04T05:26:40.883Z,35.45
2019-02-04T05:46:52.034Z,20.29
2019-02-04T06:06:59.404Z,26.71
2019-02-04T06:27:10.351Z,27.29
2019-02-04T06:47:18.274Z,67.09
2019-02-04T07:07:28.003Z,25.71
2019-02-04T07:27:39.817Z,18.28
2019-02-04T07:47:39.425Z,12.09
2019-02-04T08:07:51.123Z,11.26
2019-02-04T08:27:50.620Z,14.05
2019-02-04T08:48:00.091Z,14.48
2019-02-04T09:08:11.871Z,19.44
2019-02-04T09:28:13.646Z,23.82
2019-02-04T10:08:20.576Z,22.87
2019-02-04T10:28:42.239Z,29.70
2019-02-04T10:48:26.072Z,27.47
2019-02-04T11:08:35.502Z,21.27
2019-02-04T11:48:47.711Z,23.96
2019-02-04T12:08:57.324Z,16.96
2019-02-04T12:29:06.834Z,17.69
2019-02-04T12:49:16.444Z,20.00
2019-02-04T13:09:25.912Z,15.88
2019-02-04T13:29:35.373Z,12.27
2019-02-04T13:49:44.770Z,7.61
2019-02-04T14:10:00.546Z,6.32
2019-02-04T14:30:02.853Z,4.02
2019-02-04T14:50:02.663Z,2.07
2019-02-04T15:10:12.101Z,1.66
2019-02-04T15:30:22.093Z,1.25
2019-02-04T15:50:31.735Z,1.43
2019-02-04T16:10:41.227Z,2.24
2019-02-04T16:30:50.744Z,1.88
2019-02-04T16:51:11.329Z,2.45
2019-02-04T17:11:09.407Z,2.38
2019-02-04T17:31:19.031Z,2.65
2019-02-04T17:51:28.596Z,4.04
2019-02-04T18:11:38.116Z,2.91
2019-02-04T18:31:47.640Z,3.03
2019-02-04T18:51:59.535Z,2.82
2019-02-04T19:11:59.396Z,3.87
2019-02-04T19:31:59.084Z,4.88
2019-02-04T19:52:08.766Z,6.06
2019-02-04T20:12:17.122Z,6.91
2019-02-04T20:32:28.884Z,8.14
2019-02-04T20:52:29.223Z,8.43
2019-02-04T21:12:28.847Z,8.57
2019-02-04T21:32:38.365Z,7.45
2019-02-04T21:52:47.933Z,8.07
2019-02-04T22:12:57.570Z,7.90
2019-02-04T22:33:07.163Z,5.90
2019-02-04T22:53:16.633Z,5.53
2019-02-04T23:13:28.360Z,6.22
2019-02-04T23:33:34.114Z,5.93
2019-02-04T23:53:36.983Z,4.81
